createdAt,value
2018-12-06T00:02:04.057Z,36.23
2018-12-06T00:04:32.983Z,38.53
2018-12-06T00:07:01.883Z,33.70
2018-12-06T00:09:30.777Z,43.10
2018-12-06T00:11:59.686Z,40.50
2018-12-06T00:14:28.593Z,36.23
2018-12-06T00:16:57.501Z,43.20
2018-12-06T00:19:26.408Z,42.77
2018-12-06T00:21:55.326Z,45.00
2018-12-06T00:24:24.238Z,46.03
2018-12-06T00:26:53.416Z,43.20
2018-12-06T00:29:22.321Z,45.43
2018-12-06T00:34:34.452Z,41.80
2018-12-06T00:37:03.356Z,45.80
2018-12-06T00:39:32.255Z,38.60
2018-12-06T00:42:01.166Z,36.10
2018-12-06T00:44:30.061Z,42.63
2018-12-06T00:46:58.971Z,43.43
2018-12-06T00:49:27.885Z,37.90
2018-12-06T00:51:56.789Z,43.77
2018-12-06T00:54:25.702Z,47.03
2018-12-06T00:56:54.671Z,41.00
2018-12-06T00:59:23.577Z,39.90
2018-12-06T01:01:53.414Z,37.50
2018-12-06T01:04:22.563Z,46.67
2018-12-06T01:06:51.477Z,36.30
2018-12-06T01:09:20.405Z,36.80
2018-12-06T01:11:49.314Z,40.83
2018-12-06T01:14:20.279Z,45.10
2018-12-06T01:16:49.187Z,41.53
2018-12-06T01:19:18.088Z,46.97
2018-12-06T01:21:47.005Z,46.20
2018-12-06T01:24:15.910Z,46.03
2018-12-06T01:26:44.812Z,41.60
2018-12-06T01:29:13.744Z,46.60
2018-12-06T01:31:42.677Z,40.67
2018-12-06T01:34:11.574Z,40.77
2018-12-06T01:36:40.468Z,37.10
2018-12-06T01:39:09.452Z,38.63
2018-12-06T01:41:38.403Z,36.83
2018-12-06T01:44:07.301Z,41.53
2018-12-06T01:46:36.201Z,46.00
2018-12-06T01:49:05.108Z,42.37
2018-12-06T01:51:34.004Z,39.10
2018-12-06T01:54:02.896Z,43.47
2018-12-06T01:56:31.812Z,43.70
2018-12-06T01:59:00.726Z,47.43
2018-12-06T02:01:29.646Z,40.53
2018-12-06T02:03:58.542Z,35.80
2018-12-06T02:06:27.433Z,39.60
2018-12-06T02:08:56.456Z,38.40
2018-12-06T02:11:25.361Z,39.80
2018-12-06T02:13:54.261Z,50.80
2018-12-06T02:16:23.186Z,39.33
2018-12-06T02:18:52.382Z,41.27
2018-12-06T02:21:21.287Z,39.70
2018-12-06T02:23:50.268Z,34.63
2018-12-06T02:26:19.192Z,40.60
2018-12-06T02:28:48.167Z,40.47
2018-12-06T02:31:17.121Z,43.73
2018-12-06T02:33:46.037Z,38.40
2018-12-06T02:36:14.925Z,34.20
2018-12-06T02:38:43.835Z,57.87
2018-12-06T02:41:12.864Z,38.97
2018-12-06T02:43:41.777Z,41.53
2018-12-06T02:46:10.673Z,37.90
2018-12-06T02:48:39.593Z,34.73
2018-12-06T02:51:08.509Z,34.63
2018-12-06T02:53:37.426Z,34.30
2018-12-06T02:56:06.340Z,33.37
2018-12-06T02:58:35.261Z,39.83
2018-12-06T03:01:04.396Z,29.13
2018-12-06T03:03:33.376Z,32.80
2018-12-06T03:06:02.280Z,29.43
2018-12-06T03:08:31.168Z,33.23
2018-12-06T03:11:00.060Z,30.00
2018-12-06T03:13:28.990Z,32.30
2018-12-06T03:15:57.896Z,38.67
2018-12-06T03:18:26.819Z,39.20
2018-12-06T03:20:55.722Z,32.43
2018-12-06T03:23:25.238Z,36.87
2018-12-06T03:25:54.141Z,49.73
2018-12-06T03:28:23.067Z,40.50
2018-12-06T03:30:51.978Z,37.17
2018-12-06T03:33:20.918Z,40.83
2018-12-06T03:35:49.936Z,49.33
2018-12-06T03:38:18.849Z,39.17
2018-12-06T03:40:47.758Z,40.03
2018-12-06T03:43:16.668Z,38.00
2018-12-06T03:45:45.577Z,37.73
2018-12-06T03:48:14.500Z,37.33
2018-12-06T03:50:43.423Z,35.93
2018-12-06T03:53:12.330Z,37.30
2018-12-06T03:55:41.249Z,44.60
2018-12-06T03:58:10.152Z,41.37
2018-12-06T04:00:39.097Z,44.00
2018-12-06T04:03:08.174Z,37.97
2018-12-06T04:05:37.081Z,44.87
2018-12-06T04:08:05.990Z,43.03
2018-12-06T04:10:34.878Z,43.60
2018-12-06T04:13:03.818Z,39.23
2018-12-06T04:15:32.709Z,39.30
2018-12-06T04:18:01.634Z,44.40
2018-12-06T04:20:30.570Z,48.37
2018-12-06T04:22:59.497Z,35.63
2018-12-06T04:25:28.393Z,31.97
2018-12-06T04:27:57.314Z,32.40
2018-12-06T04:30:26.223Z,29.20
2018-12-06T04:32:55.129Z,39.23
2018-12-06T04:35:24.044Z,28.70
2018-12-06T04:37:53.029Z,33.03
2018-12-06T04:40:21.937Z,29.87
2018-12-06T04:42:50.831Z,34.27
2018-12-06T04:45:19.757Z,27.40
2018-12-06T04:47:48.670Z,32.63
2018-12-06T04:50:17.586Z,32.33
2018-12-06T04:52:46.483Z,28.47
2018-12-06T04:55:15.388Z,28.80
2018-12-06T04:57:44.282Z,31.57
2018-12-06T05:00:13.220Z,37.23
2018-12-06T05:02:42.142Z,29.53
2018-12-06T05:05:11.101Z,36.77
2018-12-06T05:07:39.992Z,30.93
2018-12-06T05:10:08.924Z,34.17
2018-12-06T05:12:37.818Z,34.67
2018-12-06T05:15:06.719Z,38.53
2018-12-06T05:17:35.604Z,37.13
2018-12-06T05:20:04.562Z,33.17
2018-12-06T05:22:33.474Z,34.70
2018-12-06T05:25:02.392Z,35.60
2018-12-06T05:27:31.303Z,33.80
2018-12-06T05:30:00.244Z,38.83
2018-12-06T05:32:29.144Z,37.43
2018-12-06T05:34:58.121Z,35.33
2018-12-06T05:37:27.106Z,31.03
2018-12-06T05:39:56.016Z,37.00
2018-12-06T05:42:24.941Z,33.60
2018-12-06T05:44:53.873Z,28.60
2018-12-06T05:47:22.869Z,38.60
2018-12-06T05:49:51.773Z,27.10
2018-12-06T05:52:20.683Z,32.43
2018-12-06T05:54:49.595Z,22.33
2018-12-06T05:57:18.493Z,22.90
2018-12-06T05:59:47.489Z,28.83
2018-12-06T06:02:16.401Z,25.53
2018-12-06T06:04:45.309Z,25.10
2018-12-06T06:07:14.217Z,28.47
2018-12-06T06:09:43.121Z,25.83
2018-12-06T06:12:12.024Z,27.33
2018-12-06T06:14:40.913Z,22.83
2018-12-06T06:17:09.827Z,27.40
2018-12-06T06:19:38.742Z,31.13
2018-12-06T06:22:07.722Z,30.70
2018-12-06T06:24:36.622Z,29.50
2018-12-06T06:27:05.604Z,32.83
2018-12-06T06:29:34.552Z,39.00
2018-12-06T06:32:03.470Z,32.13
2018-12-06T06:34:32.373Z,33.70
2018-12-06T06:37:01.278Z,32.63
2018-12-06T06:39:30.198Z,40.97
2018-12-06T06:41:59.096Z,44.43
2018-12-06T06:44:28.000Z,45.73
2018-12-06T06:46:56.894Z,45.07
2018-12-06T06:49:25.840Z,43.50
2018-12-06T06:51:54.754Z,42.23
2018-12-06T06:54:23.673Z,29.33
2018-12-06T06:56:52.567Z,34.13
2018-12-06T06:59:26.061Z,29.77
2018-12-06T07:01:52.448Z,31.47
2018-12-06T07:04:21.360Z,32.30
2018-12-06T07:06:50.314Z,35.80
2018-12-06T07:09:19.222Z,28.43
2018-12-06T07:11:48.154Z,27.07
2018-12-06T07:14:17.102Z,27.23
2018-12-06T07:16:46.039Z,32.87
2018-12-06T07:19:14.941Z,28.13
2018-12-06T07:21:43.869Z,32.10
2018-12-06T07:24:12.768Z,39.10
2018-12-06T07:26:41.756Z,29.77
2018-12-06T07:29:10.799Z,40.97
2018-12-06T07:31:39.701Z,27.37
2018-12-06T07:34:08.589Z,30.77
2018-12-06T07:36:37.484Z,26.53
2018-12-06T07:39:08.406Z,30.93
2018-12-06T07:41:37.309Z,27.37
2018-12-06T07:44:20.839Z,21.10
2018-12-06T07:46:49.763Z,22.30
2018-12-06T07:49:18.666Z,19.30
2018-12-06T07:51:47.583Z,20.37
2018-12-06T07:54:16.474Z,15.23
2018-12-06T07:56:45.391Z,20.30
2018-12-06T07:59:14.315Z,29.30
2018-12-06T08:01:43.510Z,36.00
2018-12-06T08:04:12.396Z,37.30
2018-12-06T08:06:41.313Z,40.00
2018-12-06T08:09:10.676Z,32.30
2018-12-06T08:11:39.570Z,36.40
2018-12-06T08:14:08.507Z,31.57
2018-12-06T08:16:37.496Z,27.83
2018-12-06T08:19:06.397Z,29.10
2018-12-06T08:21:35.310Z,42.93
2018-12-06T08:24:04.262Z,34.67
2018-12-06T08:26:33.182Z,25.80
2018-12-06T08:29:02.099Z,29.50
2018-12-06T08:31:31.993Z,32.23
2018-12-06T08:34:06.129Z,32.30
2018-12-06T08:36:31.900Z,33.70
2018-12-06T08:39:00.831Z,31.70
2018-12-06T08:41:29.754Z,33.63
2018-12-06T08:43:58.694Z,37.00
2018-12-06T08:46:27.662Z,33.50
2018-12-06T08:49:02.832Z,25.00
2018-12-06T08:51:27.621Z,29.70
2018-12-06T08:53:56.513Z,27.60
2018-12-06T08:56:25.432Z,25.40
2018-12-06T08:58:54.351Z,22.40
2018-12-06T09:01:23.259Z,30.57
2018-12-06T09:03:52.161Z,20.00
2018-12-06T09:06:21.434Z,21.67
2018-12-06T09:08:50.425Z,35.83
2018-12-06T09:11:19.790Z,31.27
2018-12-06T09:13:48.788Z,29.33
2018-12-06T09:16:18.219Z,33.97
2018-12-06T09:18:47.587Z,28.73
2018-12-06T09:21:16.541Z,29.33
2018-12-06T09:23:45.686Z,59.53
2018-12-06T09:26:20.881Z,26.90
2018-12-06T09:28:49.782Z,36.43
2018-12-06T09:31:19.268Z,73.40
2018-12-06T09:34:06.277Z,38.87
2018-12-06T09:36:35.940Z,21.37
2018-12-06T09:39:07.100Z,28.73
2018-12-06T09:41:37.924Z,23.93
2018-12-06T09:44:06.883Z,35.80
2018-12-06T09:46:35.804Z,37.97
2018-12-06T09:49:06.966Z,28.57
2018-12-06T09:51:35.895Z,29.70
2018-12-06T09:54:04.846Z,33.10
2018-12-06T09:56:33.742Z,37.43
2018-12-06T09:59:02.680Z,30.00
2018-12-06T10:01:31.619Z,31.40
2018-12-06T10:04:00.528Z,29.47
2018-12-06T10:06:29.451Z,27.20
2018-12-06T10:08:58.362Z,17.60
2018-12-06T10:11:27.894Z,23.93
2018-12-06T10:13:56.803Z,21.33
2018-12-06T10:16:25.710Z,31.10
2018-12-06T10:18:54.657Z,35.10
2018-12-06T10:21:23.660Z,24.23
2018-12-06T10:23:54.702Z,24.53
2018-12-06T10:26:23.615Z,16.60
2018-12-06T10:28:52.516Z,8.87
2018-12-06T10:31:21.417Z,11.17
2018-12-06T10:33:50.375Z,14.90
2018-12-06T10:36:19.283Z,17.47
2018-12-06T10:38:48.165Z,20.27
2018-12-06T10:41:17.071Z,18.13
2018-12-06T10:43:45.963Z,15.10
2018-12-06T10:46:14.872Z,18.13
2018-12-06T10:48:43.765Z,20.10
2018-12-06T10:51:23.597Z,13.40
2018-12-06T10:53:52.506Z,17.30
2018-12-06T10:56:21.437Z,24.87
2018-12-06T10:58:50.350Z,23.03
2018-12-06T11:01:21.668Z,17.77
2018-12-06T11:03:59.517Z,22.13
2018-12-06T11:06:28.480Z,18.47
2018-12-06T11:08:57.386Z,12.77
2018-12-06T11:11:26.547Z,12.30
2018-12-06T11:13:55.568Z,13.40
2018-12-06T11:16:24.505Z,16.60
2018-12-06T11:18:53.401Z,9.93
2018-12-06T11:21:22.323Z,9.97
2018-12-06T11:23:51.243Z,9.40
2018-12-06T11:26:20.176Z,24.13
2018-12-06T11:28:49.093Z,19.80
2018-12-06T11:31:17.998Z,50.00
2018-12-06T11:33:46.989Z,34.43
2018-12-06T11:36:15.904Z,27.33
2018-12-06T11:38:44.792Z,20.77
2018-12-06T11:41:13.714Z,25.77
2018-12-06T11:43:42.630Z,38.90
2018-12-06T11:46:11.541Z,26.43
2018-12-06T11:48:40.455Z,28.20
2018-12-06T11:51:09.382Z,21.90
2018-12-06T11:53:38.294Z,19.17
2018-12-06T11:56:07.211Z,29.80
2018-12-06T11:58:36.105Z,31.03
2018-12-06T12:01:05.060Z,22.97
2018-12-06T12:03:34.069Z,24.50
2018-12-06T12:06:03.027Z,16.10
2018-12-06T12:08:31.924Z,14.20
2018-12-06T12:11:00.829Z,13.83
2018-12-06T12:13:29.712Z,11.10
2018-12-06T12:15:58.639Z,12.47
2018-12-06T12:18:27.553Z,11.50
2018-12-06T12:20:56.489Z,11.90
2018-12-06T12:23:25.421Z,17.53
2018-12-06T12:25:54.330Z,9.43
2018-12-06T12:28:23.225Z,9.37
2018-12-06T12:30:52.116Z,8.43
2018-12-06T12:33:21.010Z,9.30
2018-12-06T12:35:49.926Z,8.87
2018-12-06T12:38:18.842Z,13.27
2018-12-06T12:40:47.766Z,10.97
2018-12-06T12:43:16.673Z,5.73
2018-12-06T12:45:45.594Z,9.90
2018-12-06T12:48:14.509Z,14.10
2018-12-06T12:50:43.422Z,18.63
2018-12-06T12:53:12.323Z,18.83
2018-12-06T12:55:41.238Z,19.50
2018-12-06T12:58:10.145Z,13.90
2018-12-06T13:00:39.071Z,9.50
2018-12-06T13:03:07.974Z,12.23
2018-12-06T13:05:36.878Z,9.80
2018-12-06T13:08:05.785Z,9.50
2018-12-06T13:10:34.706Z,11.03
2018-12-06T13:13:03.610Z,10.30
2018-12-06T13:15:32.520Z,9.43
2018-12-06T13:18:01.425Z,7.17
2018-12-06T13:20:30.334Z,14.20
2018-12-06T13:22:59.234Z,10.10
2018-12-06T13:25:28.128Z,7.93
2018-12-06T13:27:57.034Z,9.13
2018-12-06T13:30:25.940Z,13.93
2018-12-06T13:32:54.858Z,13.33
2018-12-06T13:35:23.783Z,10.60
2018-12-06T13:37:52.698Z,10.23
2018-12-06T13:40:21.625Z,16.40
2018-12-06T13:42:50.538Z,20.20
2018-12-06T13:45:19.445Z,64.90
2018-12-06T13:47:48.349Z,48.20
2018-12-06T13:50:17.280Z,29.57
2018-12-06T13:52:46.181Z,15.70
2018-12-06T13:55:15.101Z,11.83
2018-12-06T13:57:44.022Z,9.27
2018-12-06T14:00:12.940Z,8.93
2018-12-06T14:02:41.844Z,10.90
2018-12-06T14:05:10.756Z,10.90
2018-12-06T14:07:39.669Z,14.97
2018-12-06T14:10:08.579Z,23.10
2018-12-06T14:12:38.014Z,14.47
2018-12-06T14:15:06.938Z,17.10
2018-12-06T14:17:35.844Z,12.70
2018-12-06T14:20:05.231Z,17.00
2018-12-06T14:22:34.140Z,23.87
2018-12-06T14:25:03.062Z,40.60
2018-12-06T14:27:31.980Z,42.20
2018-12-06T14:30:00.891Z,44.60
2018-12-06T14:32:29.814Z,74.27
2018-12-06T14:34:58.717Z,55.03
2018-12-06T14:37:27.623Z,40.40
2018-12-06T14:39:56.534Z,27.03
2018-12-06T14:42:25.433Z,16.83
2018-12-06T14:44:54.339Z,19.43
2018-12-06T14:47:23.250Z,10.27
2018-12-06T14:49:52.154Z,21.50
2018-12-06T14:52:21.062Z,15.23
2018-12-06T14:54:49.953Z,14.23
2018-12-06T14:57:18.882Z,12.97
2018-12-06T14:59:47.794Z,13.80
2018-12-06T15:02:16.712Z,16.17
2018-12-06T15:04:45.603Z,11.00
2018-12-06T15:07:14.517Z,17.60
2018-12-06T15:09:43.414Z,21.20
2018-12-06T15:12:12.325Z,18.73
2018-12-06T15:14:41.213Z,17.63
2018-12-06T15:17:10.138Z,34.77
2018-12-06T15:19:39.038Z,50.53
2018-12-06T15:22:07.970Z,36.70
2018-12-06T15:24:36.912Z,28.77
2018-12-06T15:27:05.809Z,25.27
2018-12-06T15:29:34.750Z,27.40
2018-12-06T15:32:03.675Z,31.00
2018-12-06T15:34:32.565Z,35.00
2018-12-06T15:37:01.512Z,29.37
2018-12-06T15:39:30.419Z,30.57
2018-12-06T15:41:59.340Z,36.10
2018-12-06T15:44:28.241Z,34.07
2018-12-06T15:46:57.144Z,43.00
2018-12-06T15:49:26.037Z,55.40
2018-12-06T15:51:54.951Z,64.13
2018-12-06T15:54:23.853Z,49.30
2018-12-06T15:56:52.805Z,39.10
2018-12-06T15:59:21.709Z,38.47
2018-12-06T16:01:50.727Z,37.23
2018-12-06T16:04:19.621Z,36.43
2018-12-06T16:06:48.542Z,41.20
2018-12-06T16:09:17.506Z,37.30
2018-12-06T16:11:46.401Z,41.97
2018-12-06T16:14:15.307Z,60.83
2018-12-06T16:16:44.225Z,43.80
2018-12-06T16:19:13.141Z,33.90
2018-12-06T16:21:42.072Z,37.50
2018-12-06T16:24:10.975Z,40.70
2018-12-06T16:26:39.896Z,31.67
2018-12-06T16:29:08.791Z,30.80
2018-12-06T16:31:37.697Z,27.67
2018-12-06T16:34:06.628Z,23.23
2018-12-06T16:36:35.556Z,26.33
2018-12-06T16:39:05.884Z,26.00
2018-12-06T16:41:34.791Z,31.67
2018-12-06T16:44:04.173Z,22.10
2018-12-06T16:46:33.121Z,20.80
2018-12-06T16:49:09.854Z,21.37
2018-12-06T16:51:33.339Z,19.60
2018-12-06T16:54:02.319Z,24.43
2018-12-06T16:56:31.228Z,22.80
2018-12-06T16:59:00.116Z,37.20
2018-12-06T17:02:31.981Z,23.50
2018-12-06T17:05:01.458Z,22.83
2018-12-06T17:07:30.370Z,20.43
2018-12-06T17:09:59.272Z,16.10
2018-12-06T17:12:29.299Z,20.00
2018-12-06T17:14:58.202Z,25.60
2018-12-06T17:17:27.114Z,38.33
2018-12-06T17:19:56.055Z,44.30
2018-12-06T17:22:24.957Z,59.70
2018-12-06T17:24:53.869Z,49.63
2018-12-06T17:27:22.790Z,38.37
2018-12-06T17:29:51.878Z,52.40
2018-12-06T17:32:20.996Z,57.23
2018-12-06T17:34:49.909Z,83.77
2018-12-06T17:37:18.858Z,80.57
2018-12-06T17:39:47.800Z,75.43
2018-12-06T17:42:16.768Z,74.73
2018-12-06T17:44:45.700Z,79.70
2018-12-06T17:47:14.665Z,79.40
2018-12-06T17:49:43.585Z,84.80
2018-12-06T17:52:12.501Z,72.30
2018-12-06T17:54:41.406Z,75.80
2018-12-06T17:57:10.346Z,89.50
2018-12-06T17:59:39.280Z,110.83
2018-12-06T18:02:08.242Z,93.87
2018-12-06T18:04:37.195Z,101.07
2018-12-06T18:07:06.094Z,96.77
2018-12-06T18:09:34.997Z,91.13
2018-12-06T18:12:03.929Z,97.80
2018-12-06T18:14:32.878Z,100.83
2018-12-06T18:17:01.795Z,103.47
2018-12-06T18:19:30.735Z,95.27
2018-12-06T18:22:01.293Z,90.10
2018-12-06T18:24:30.586Z,103.50
2018-12-06T18:26:59.587Z,91.67
2018-12-06T18:29:28.574Z,82.37
2018-12-06T18:31:57.473Z,88.87
2018-12-06T18:34:26.426Z,107.03
2018-12-06T18:36:55.328Z,86.87
2018-12-06T18:39:24.238Z,93.20
2018-12-06T18:41:53.186Z,84.40
2018-12-06T18:44:22.105Z,78.03
2018-12-06T18:46:51.069Z,83.20
2018-12-06T18:49:20.056Z,86.43
2018-12-06T18:51:48.989Z,103.40
2018-12-06T18:54:17.885Z,111.70
2018-12-06T18:56:46.797Z,136.80
2018-12-06T18:59:15.708Z,125.60
2018-12-06T19:01:44.621Z,119.83
2018-12-06T19:04:13.627Z,121.00
2018-12-06T19:06:44.895Z,133.67
2018-12-06T19:09:14.038Z,122.57
2018-12-06T19:12:14.385Z,94.30
2018-12-06T19:14:43.282Z,82.30
2018-12-06T19:17:12.198Z,93.97
2018-12-06T19:19:41.135Z,87.30
2018-12-06T19:22:10.067Z,82.80
2018-12-06T19:24:38.987Z,88.40
2018-12-06T19:27:07.942Z,91.57
2018-12-06T19:29:36.883Z,99.70
2018-12-06T19:32:05.889Z,121.30
2018-12-06T19:34:35.090Z,121.73
2018-12-06T19:37:04.006Z,104.90
2018-12-06T19:39:32.944Z,106.80
2018-12-06T19:42:01.859Z,121.87
2018-12-06T19:44:30.835Z,117.57
2018-12-06T19:46:59.815Z,106.60
2018-12-06T19:49:28.819Z,124.90
2018-12-06T19:51:57.733Z,108.70
2018-12-06T19:54:26.655Z,98.17
2018-12-06T19:56:55.593Z,102.60
2018-12-06T19:59:24.518Z,187.53
2018-12-06T20:01:53.436Z,359.07
2018-12-06T20:04:22.388Z,304.50
2018-12-06T20:06:51.296Z,285.67
2018-12-06T20:09:20.221Z,153.97
2018-12-06T20:11:49.224Z,185.03
2018-12-06T20:14:18.154Z,186.70
2018-12-06T20:16:47.174Z,186.27
2018-12-06T20:19:16.107Z,174.87
2018-12-06T20:21:45.053Z,150.57
2018-12-06T20:24:13.986Z,144.67
2018-12-06T20:26:42.990Z,137.87
2018-12-06T20:29:11.953Z,138.67
2018-12-06T20:31:40.898Z,136.57
2018-12-06T20:34:09.847Z,132.33
2018-12-06T20:36:38.815Z,139.40
2018-12-06T20:39:08.377Z,145.77
2018-12-06T20:41:37.381Z,156.23
2018-12-06T20:44:06.349Z,151.13
2018-12-06T20:46:35.260Z,157.43
2018-12-06T20:49:04.183Z,167.57
2018-12-06T20:51:33.480Z,154.23
2018-12-06T20:54:02.554Z,164.67
2018-12-06T20:56:31.473Z,160.43
2018-12-06T20:59:00.382Z,167.57
2018-12-06T21:01:29.292Z,165.53
2018-12-06T21:03:58.312Z,161.23
2018-12-06T21:06:27.258Z,169.03
2018-12-06T21:08:56.193Z,173.03
2018-12-06T21:11:25.109Z,179.37
2018-12-06T21:13:54.025Z,213.20
2018-12-06T21:16:22.934Z,229.80
2018-12-06T21:18:51.852Z,210.53
2018-12-06T21:21:20.750Z,206.07
2018-12-06T21:23:49.668Z,215.03
2018-12-06T21:26:18.573Z,210.10
2018-12-06T21:28:47.489Z,220.83
2018-12-06T21:31:16.394Z,214.13
2018-12-06T21:33:45.292Z,235.40
2018-12-06T21:36:14.204Z,242.97
2018-12-06T21:38:43.134Z,226.67
2018-12-06T21:41:12.073Z,205.70
2018-12-06T21:43:40.992Z,188.93
2018-12-06T21:46:09.945Z,194.80
2018-12-06T21:48:38.887Z,198.13
2018-12-06T21:51:07.800Z,148.23
2018-12-06T21:53:36.714Z,162.90
2018-12-06T21:56:05.645Z,147.37
2018-12-06T21:58:34.578Z,125.07
2018-12-06T22:01:03.497Z,119.70
2018-12-06T22:03:32.433Z,88.17
2018-12-06T22:06:01.361Z,67.93
2018-12-06T22:08:30.290Z,39.37
2018-12-06T22:10:59.202Z,43.80
2018-12-06T22:13:28.101Z,33.70
2018-12-06T22:15:56.996Z,40.10
2018-12-06T22:18:25.962Z,31.30
2018-12-06T22:20:56.361Z,35.63
2018-12-06T22:23:25.485Z,33.63
2018-12-06T22:25:54.396Z,36.70
2018-12-06T22:28:23.377Z,40.53
2018-12-06T22:30:52.281Z,46.87
2018-12-06T22:33:21.248Z,46.97
2018-12-06T22:35:50.154Z,44.57
2018-12-06T22:38:19.045Z,38.50
2018-12-06T22:40:47.969Z,48.60
2018-12-06T22:43:16.874Z,37.63
2018-12-06T22:46:01.213Z,48.10
2018-12-06T22:48:30.187Z,47.33
2018-12-06T22:50:59.137Z,41.93
2018-12-06T22:53:28.043Z,41.43
2018-12-06T22:55:57.004Z,39.37
2018-12-06T22:58:25.910Z,44.00
2018-12-06T23:00:56.947Z,66.73
2018-12-06T23:03:26.933Z,61.63
2018-12-06T23:05:55.894Z,60.83
2018-12-06T23:08:24.803Z,69.50
2018-12-06T23:10:53.730Z,124.03
2018-12-06T23:13:22.642Z,148.43
2018-12-06T23:15:51.551Z,93.37
2018-12-06T23:18:20.481Z,101.93
2018-12-06T23:20:49.400Z,87.00
2018-12-06T23:23:18.497Z,94.47
2018-12-06T23:25:47.396Z,80.17
2018-12-06T23:28:16.317Z,88.33
2018-12-06T23:30:45.223Z,84.87
2018-12-06T23:33:14.137Z,84.83
2018-12-06T23:35:43.058Z,80.70
2018-12-06T23:38:11.979Z,72.13
2018-12-06T23:40:40.909Z,75.07
2018-12-06T23:43:09.962Z,87.40
2018-12-06T23:45:38.875Z,93.20
2018-12-06T23:48:07.792Z,92.93
2018-12-06T23:50:36.716Z,86.57
2018-12-06T23:53:05.630Z,96.40
2018-12-06T23:55:34.529Z,93.00
2018-12-06T23:58:03.434Z,76.57
